createdAt,value
2023-05-06T00:02:00.411Z,52.7
2023-05-06T00:04:06.890Z,55.3
2023-05-06T00:06:15.765Z,64.4
2023-05-06T00:08:22.051Z,64.3
2023-05-06T00:10:28.300Z,71.5
2023-05-06T00:11:32.814Z,59.5
2023-05-06T00:13:39.093Z,57.6
2023-05-06T00:17:51.649Z,68.3
2023-05-06T00:22:06.958Z,47
2023-05-06T00:24:13.218Z,52
2023-05-06T00:26:19.472Z,64.8
2023-05-06T00:28:25.747Z,51.5
2023-05-06T00:32:38.326Z,55.5
2023-05-06T00:34:47.343Z,55.9
2023-05-06T00:36:53.636Z,53.5
2023-05-06T00:38:59.933Z,58.3
2023-05-06T00:41:06.159Z,64.8
2023-05-06T00:43:12.407Z,57.2
2023-05-06T00:47:24.936Z,48.1
2023-05-06T00:49:33.983Z,61.6
2023-05-06T00:51:40.277Z,55.5
2023-05-06T00:53:46.508Z,54.3
2023-05-06T01:06:26.854Z,51.2
2023-05-06T01:09:37.670Z,69.9
2023-05-06T01:11:43.927Z,67.5
2023-05-06T01:18:05.578Z,81.7
2023-05-06T01:20:11.794Z,76.4
2023-05-06T01:22:18.046Z,84.4
2023-05-06T01:24:24.276Z,70.4
2023-05-06T01:26:30.538Z,80.1
2023-05-06T01:28:36.819Z,73.1
2023-05-06T01:30:43.100Z,75.8
2023-05-06T01:32:52.283Z,78.2
2023-05-06T01:34:58.406Z,83.7
2023-05-06T01:37:04.661Z,87.1
2023-05-06T01:39:10.938Z,81
2023-05-06T01:41:17.181Z,76.5
2023-05-06T01:43:23.427Z,84.1
2023-05-06T01:47:38.786Z,71.6
2023-05-06T01:49:45.030Z,76.8
2023-05-06T01:51:51.299Z,83.2
2023-05-06T01:53:57.550Z,75.5
2023-05-06T01:56:03.811Z,75.7
2023-05-06T01:58:10.095Z,70.8
2023-05-06T02:00:16.331Z,66.4
2023-05-06T02:07:42.530Z,59.6
2023-05-06T02:11:55.000Z,54.2
2023-05-06T02:14:01.251Z,62.2
2023-05-06T02:16:10.385Z,59.4
2023-05-06T02:18:16.605Z,55.7
2023-05-06T02:24:35.379Z,63.9
2023-05-06T02:26:41.642Z,61.4
2023-05-06T02:28:47.920Z,78
2023-05-06T02:30:56.989Z,73.2
2023-05-06T02:33:03.356Z,83.6
2023-05-06T02:35:09.713Z,88.7
2023-05-06T02:37:15.761Z,105.6
2023-05-06T02:39:22.005Z,124.9
2023-05-06T02:41:28.271Z,103.3
2023-05-06T02:43:34.518Z,88.1
2023-05-06T02:45:43.636Z,121.6
2023-05-06T02:49:56.115Z,127.8
2023-05-06T02:52:02.378Z,115.1
2023-05-06T02:54:08.636Z,128.8
2023-05-06T02:56:14.922Z,121.1
2023-05-06T03:00:30.232Z,129.2
2023-05-06T03:02:36.545Z,121.8
2023-05-06T03:04:42.774Z,133.3
2023-05-06T03:07:02.622Z,159.1
2023-05-06T03:09:08.895Z,154.7
2023-05-06T03:13:24.232Z,143.6
2023-05-06T03:15:30.499Z,141.3
2023-05-06T03:19:43.038Z,112.1
2023-05-06T03:21:49.449Z,106.1
2023-05-06T03:23:55.531Z,112.3
2023-05-06T03:26:01.813Z,90
2023-05-06T03:28:10.900Z,90.2
2023-05-06T03:30:17.152Z,91.8
2023-05-06T03:32:23.464Z,98.9
2023-05-06T03:49:16.333Z,77.7
2023-05-06T03:53:28.856Z,92
2023-05-06T03:57:44.210Z,96.4
2023-05-06T04:01:56.759Z,75.5
2023-05-06T04:03:01.490Z,78.4
2023-05-06T04:07:13.767Z,87.5
2023-05-06T04:11:29.907Z,110.1
2023-05-06T04:13:35.356Z,97.9
2023-05-06T04:15:41.651Z,206.9
2023-05-06T04:32:35.208Z,297.3
2023-05-06T04:34:41.418Z,163.3
2023-05-06T04:36:47.697Z,269
2023-05-06T04:41:03.016Z,286.1
2023-05-06T04:43:09.295Z,268.7
2023-05-06T04:47:21.839Z,226.3
2023-05-06T04:49:28.095Z,152.8
2023-05-06T04:51:34.363Z,309
2023-05-06T05:00:02.232Z,318.6
2023-05-06T05:01:06.796Z,245.1
2023-05-06T05:03:13.174Z,224.6
2023-05-06T05:11:40.903Z,461.8
2023-05-06T05:13:47.132Z,204.2
2023-05-06T05:15:53.416Z,458.1
2023-05-06T05:17:59.728Z,653.3
2023-05-06T05:20:05.944Z,432.1
2023-05-06T05:22:12.193Z,165.8
2023-05-06T05:24:21.274Z,328.8
2023-05-06T05:26:27.566Z,435
2023-05-06T05:34:52.617Z,407.3
2023-05-06T05:36:58.882Z,417.3
2023-05-06T05:39:07.972Z,251.5
2023-05-06T05:41:16.116Z,380.2
2023-05-06T05:43:20.495Z,183
2023-05-06T05:45:26.777Z,178.2
2023-05-06T05:49:39.308Z,105.1
2023-05-06T05:53:56.204Z,180.5
2023-05-06T05:56:02.474Z,102.2
2023-05-06T05:58:08.740Z,154.1
2023-05-06T06:01:19.541Z,95.6
2023-05-06T06:03:25.946Z,86.3
2023-05-06T06:05:32.090Z,68.8
2023-05-06T06:09:47.425Z,76.4
2023-05-06T06:11:53.736Z,77.8
2023-05-06T06:13:59.971Z,63.3
2023-05-06T06:16:06.302Z,110.2
2023-05-06T06:18:12.514Z,85
2023-05-06T06:20:18.781Z,51
2023-05-06T06:22:27.866Z,89
2023-05-06T06:24:34.161Z,188.5
2023-05-06T06:26:40.442Z,219.5
2023-05-06T06:28:46.697Z,54
2023-05-06T06:30:52.992Z,61.1
2023-05-06T06:32:59.299Z,57.9
2023-05-06T06:35:05.544Z,76.9
2023-05-06T06:37:14.647Z,51.2
2023-05-06T06:43:33.483Z,41.8
2023-05-06T06:45:39.798Z,37.9
2023-05-06T06:47:46.061Z,38.9
2023-05-06T06:56:13.963Z,35.2
2023-05-06T06:58:33.949Z,36.4
2023-05-06T07:00:40.260Z,33.5
2023-05-06T07:02:46.580Z,30.3
2023-05-06T07:04:55.638Z,30.3
2023-05-06T07:07:01.926Z,32.7
2023-05-06T07:09:08.190Z,33.3
2023-05-06T07:11:14.502Z,31.3
2023-05-06T07:13:20.835Z,29
2023-05-06T07:15:27.062Z,38.9
2023-05-06T07:17:33.396Z,28.8
2023-05-06T07:19:42.462Z,32.2
2023-05-06T07:21:48.742Z,29.8
2023-05-06T07:23:55.032Z,28.3
2023-05-06T07:26:01.309Z,27.1
2023-05-06T07:28:07.621Z,24.7
2023-05-06T07:34:29.312Z,28.1
2023-05-06T07:36:37.325Z,27.7
2023-05-06T07:45:00.743Z,25.5
2023-05-06T07:47:07.120Z,26.6
2023-05-06T07:49:16.121Z,24.8
2023-05-06T07:51:22.402Z,21.4
2023-05-06T07:54:33.231Z,28
2023-05-06T07:56:39.523Z,26
2023-05-06T07:58:45.801Z,25.5
2023-05-06T08:00:52.097Z,25.8
2023-05-06T08:03:01.346Z,27.8
2023-05-06T08:05:07.567Z,31.3
2023-05-06T08:07:13.826Z,28.4
2023-05-06T08:11:26.404Z,21.3
2023-05-06T08:13:32.677Z,27.6
2023-05-06T08:24:06.942Z,29.4
2023-05-06T08:26:13.199Z,33.9
2023-05-06T08:28:19.501Z,22.1
2023-05-06T08:30:25.721Z,31.8
2023-05-06T08:32:34.882Z,31.8
2023-05-06T08:34:41.126Z,27.5
2023-05-06T08:36:47.373Z,26.9
2023-05-06T08:38:53.656Z,34.7
2023-05-06T08:40:59.926Z,23.9
2023-05-06T08:43:06.196Z,28.8
2023-05-06T08:47:21.635Z,25.8
2023-05-06T08:49:28.254Z,21.9
2023-05-06T08:51:34.507Z,23.8
2023-05-06T08:52:39.073Z,28.4
2023-05-06T08:54:45.424Z,22
2023-05-06T08:56:51.590Z,25.3
2023-05-06T09:01:07.037Z,27.1
2023-05-06T09:03:13.338Z,30
2023-05-06T09:05:19.508Z,24.3
2023-05-06T09:07:25.749Z,22.5
2023-05-06T09:09:31.982Z,25.3
2023-05-06T09:11:38.268Z,24.7
2023-05-06T09:24:18.643Z,21.7
2023-05-06T09:26:24.882Z,20.2
2023-05-06T09:28:31.128Z,20.7
2023-05-06T09:30:40.256Z,27.2
2023-05-06T09:32:46.507Z,25.3
2023-05-06T09:34:52.732Z,19.1
2023-05-06T09:36:59.011Z,20.2
2023-05-06T09:39:05.278Z,18.9
2023-05-06T09:41:11.496Z,20.7
2023-05-06T09:43:17.738Z,16.4
2023-05-06T09:45:26.839Z,19.7
2023-05-06T09:47:33.163Z,18.2
2023-05-06T09:49:39.292Z,25.6
2023-05-06T09:50:43.837Z,18.9
2023-05-06T09:52:50.081Z,19.7
2023-05-06T09:54:56.314Z,17.1
2023-05-06T10:01:32.831Z,24.7
2023-05-06T10:05:30.432Z,16
2023-05-06T10:07:36.525Z,16.5
2023-05-06T10:09:42.751Z,13.4
2023-05-06T10:11:48.984Z,20.9
2023-05-06T10:16:04.289Z,18.6
2023-05-06T10:18:10.547Z,16
2023-05-06T10:22:22.934Z,16
2023-05-06T10:37:09.271Z,13
2023-05-06T10:43:30.758Z,9.3
2023-05-06T10:52:14.465Z,21.7
2023-05-06T10:54:20.646Z,13
2023-05-06T10:56:29.705Z,10.9
2023-05-06T10:58:35.901Z,10.5
2023-05-06T11:00:42.164Z,16.5
2023-05-06T11:02:48.369Z,10.7
2023-05-06T11:04:54.538Z,11.9
2023-05-06T11:07:00.730Z,16.6
2023-05-06T11:09:06.948Z,12.3
2023-05-06T11:11:16.056Z,27
2023-05-06T11:13:22.363Z,8.8
2023-05-06T11:15:28.417Z,13.2
2023-05-06T11:17:34.637Z,18.1
2023-05-06T11:19:40.800Z,13.8
2023-05-06T11:23:53.211Z,18.2
2023-05-06T11:26:02.358Z,12.6
2023-05-06T11:28:08.478Z,12.7
2023-05-06T11:30:14.668Z,14.2
2023-05-06T11:32:20.889Z,12.6
2023-05-06T11:34:27.084Z,14.7
2023-05-06T11:38:39.473Z,9.5
2023-05-06T11:40:48.532Z,9.5
2023-05-06T11:46:05.479Z,13.1
2023-05-06T11:54:33.129Z,10.7
2023-05-06T11:56:40.897Z,17.7
2023-05-06T12:02:59.539Z,14.4
2023-05-06T12:05:05.671Z,8.9
2023-05-06T12:07:11.876Z,11.6
2023-05-06T12:09:20.932Z,10.6
2023-05-06T12:11:27.133Z,6.6
2023-05-06T12:13:33.330Z,9.8
2023-05-06T12:19:51.926Z,5.6
2023-05-06T12:28:19.590Z,6.9
2023-05-06T12:30:25.797Z,7.7
2023-05-06T12:32:31.987Z,10.4
2023-05-06T12:36:44.332Z,7.1
2023-05-06T12:40:59.583Z,11.2
2023-05-06T12:44:10.300Z,8.5
2023-05-06T12:46:16.514Z,6.5
2023-05-06T12:52:37.892Z,11.8
2023-05-06T12:54:44.074Z,7.1
2023-05-06T12:56:50.255Z,9.6
2023-05-06T13:03:08.969Z,10.1
2023-05-06T13:05:14.962Z,9.4
2023-05-06T13:07:24.015Z,7
2023-05-06T13:09:30.199Z,8.1
2023-05-06T13:11:36.392Z,7
2023-05-06T13:13:42.560Z,9
2023-05-06T13:17:54.972Z,7.8
2023-05-06T13:24:16.365Z,8.2
2023-05-06T13:28:28.743Z,9.1
2023-05-06T13:34:47.277Z,3.8
2023-05-06T13:42:13.218Z,6.1
2023-05-06T13:46:25.637Z,8.7
2023-05-06T13:48:31.784Z,5.9
2023-05-06T13:50:40.846Z,10.8
2023-05-06T13:52:47.022Z,6.5
2023-05-06T13:54:53.186Z,8.5
2023-05-06T13:56:59.388Z,7.3
2023-05-06T13:59:05.573Z,8
2023-05-06T14:01:11.809Z,6.7
2023-05-06T14:03:17.929Z,5.9
2023-05-06T14:05:27.028Z,6.2
2023-05-06T14:07:33.176Z,6.6
2023-05-06T14:09:39.346Z,7.2
2023-05-06T14:11:45.527Z,7.2
2023-05-06T14:13:51.729Z,6.8
2023-05-06T14:18:04.169Z,7
2023-05-06T14:20:13.108Z,3.9
2023-05-06T14:28:37.842Z,8.1
2023-05-06T14:32:50.261Z,10.1
2023-05-06T14:37:05.489Z,8.3
2023-05-06T14:41:42.951Z,7.4
2023-05-06T14:43:49.156Z,6.2
2023-05-06T14:45:55.445Z,9.8
2023-05-06T14:48:04.512Z,4.3
2023-05-06T14:52:16.872Z,6.6
2023-05-06T14:54:23.094Z,8.2
2023-05-06T15:00:41.725Z,3.6
2023-05-06T15:02:50.834Z,13.2
2023-05-06T15:07:03.234Z,5.6
2023-05-06T15:09:09.448Z,6.5
2023-05-06T15:11:15.651Z,7.7
2023-05-06T15:13:21.912Z,12.8
2023-05-06T15:15:28.094Z,10.4
2023-05-06T15:17:37.175Z,5.5
2023-05-06T15:19:43.364Z,9.2
2023-05-06T15:21:49.608Z,6.7
2023-05-06T15:23:55.803Z,7.3
2023-05-06T15:26:02.025Z,7.6
2023-05-06T15:28:08.223Z,9.4
2023-05-06T15:30:14.425Z,4.8
2023-05-06T15:32:23.536Z,7.5
2023-05-06T15:34:29.698Z,11.4
2023-05-06T15:36:35.966Z,8.2
2023-05-06T15:37:40.466Z,6.7
2023-05-06T15:39:46.669Z,7.2
2023-05-06T15:41:52.870Z,4.9
2023-05-06T15:43:59.100Z,6.1
2023-05-06T15:46:08.201Z,4.7
2023-05-06T15:52:26.839Z,9
2023-05-06T15:54:34.803Z,4.9
2023-05-06T15:56:41.373Z,3.3
2023-05-06T15:58:45.509Z,8.2
2023-05-06T16:00:54.590Z,7.7
2023-05-06T16:09:19.518Z,4.5
2023-05-06T16:11:25.781Z,6.3
2023-05-06T16:13:31.987Z,7.5
2023-05-06T16:15:41.101Z,4.1
2023-05-06T16:17:47.339Z,7.1
2023-05-06T16:19:53.556Z,8.3
2023-05-06T16:21:59.786Z,13
2023-05-06T16:26:12.251Z,8.3
2023-05-06T16:35:44.643Z,6.1
2023-05-06T16:37:50.887Z,7.5
2023-05-06T16:39:57.143Z,13.2
2023-05-06T16:42:03.386Z,15.1
2023-05-06T16:44:12.464Z,11.8
2023-05-06T16:46:18.785Z,16.1
2023-05-06T16:48:25.260Z,20.3
2023-05-06T16:50:31.240Z,22.7
2023-05-06T16:54:43.696Z,19.6
2023-05-06T17:01:05.371Z,14.8
2023-05-06T17:03:11.781Z,5.5
2023-05-06T17:05:19.067Z,8.8
2023-05-06T17:09:30.500Z,10.2
2023-05-06T17:13:45.901Z,12.8
2023-05-06T17:22:11.115Z,24.5
2023-05-06T17:24:17.413Z,28.1
2023-05-06T17:33:49.946Z,43.5
2023-05-06T17:35:56.269Z,31
2023-05-06T17:38:02.529Z,30.1
2023-05-06T17:40:08.850Z,43
2023-05-06T17:42:17.937Z,44.6
2023-05-06T17:46:30.573Z,39.5
2023-05-06T17:48:36.817Z,45.3
2023-05-06T17:50:43.108Z,43.1
2023-05-06T17:52:49.382Z,48.9
2023-05-06T17:57:04.811Z,49.2
2023-05-06T17:59:11.086Z,43.8
2023-05-06T18:01:19.014Z,57
2023-05-06T18:03:25.307Z,48.3
2023-05-06T18:05:31.499Z,49.3
2023-05-06T18:07:37.822Z,38.2
2023-05-06T18:09:44.095Z,45.3
2023-05-06T18:11:53.201Z,51.2
2023-05-06T18:13:59.519Z,45.9
2023-05-06T18:16:05.808Z,46.5
2023-05-06T18:18:12.124Z,40.4
2023-05-06T18:20:18.399Z,45.5
2023-05-06T18:22:24.654Z,56.7
2023-05-06T18:24:30.976Z,50.8
2023-05-06T18:26:44.903Z,51.1
2023-05-06T18:28:46.367Z,46.8
2023-05-06T18:30:52.676Z,49.8
2023-05-06T18:33:18.338Z,60.3
2023-05-06T18:35:24.582Z,52.7
2023-05-06T18:37:30.880Z,55.1
2023-05-06T18:41:46.270Z,35.8
2023-05-06T18:43:52.554Z,53.3
2023-05-06T18:45:58.927Z,33
2023-05-06T18:48:05.182Z,25.6
2023-05-06T18:50:11.436Z,37.3
2023-05-06T18:54:26.828Z,25.1
2023-05-06T18:58:39.399Z,22.7
2023-05-06T19:00:45.810Z,28.9
2023-05-06T19:02:51.997Z,19.3
2023-05-06T19:04:58.264Z,23.8
2023-05-06T19:07:04.564Z,21.3
2023-05-06T19:09:13.718Z,19.3
2023-05-06T19:11:20.009Z,13.2
2023-05-06T19:13:26.378Z,23.5
2023-05-06T19:15:32.596Z,18.2
2023-05-06T19:19:45.154Z,18.8
2023-05-06T19:21:51.480Z,20.7
2023-05-06T19:24:00.559Z,17.1
2023-05-06T19:29:17.715Z,24.1
2023-05-06T19:31:24.009Z,24.1
2023-05-06T19:33:30.298Z,18.3
2023-05-06T19:35:36.574Z,10.8
2023-05-06T19:41:58.273Z,13
2023-05-06T19:44:04.551Z,13.1
2023-05-06T19:46:10.971Z,15.2
2023-05-06T19:48:17.138Z,17.4
2023-05-06T19:50:23.425Z,10.7
2023-05-06T19:56:45.134Z,13.6
2023-05-06T20:11:32.019Z,29.4
2023-05-06T20:17:50.930Z,18.8
2023-05-06T20:19:57.214Z,16.5
2023-05-06T20:22:06.312Z,13.5
2023-05-06T20:27:23.449Z,17.3
2023-05-06T20:29:29.713Z,15.5
2023-05-06T20:31:36.053Z,23
2023-05-06T20:33:42.314Z,13.2
2023-05-06T20:35:51.438Z,14.1
2023-05-06T20:37:57.713Z,14.9
2023-05-06T20:46:22.964Z,14.7
2023-05-06T20:48:29.171Z,17.4
2023-05-06T20:56:57.127Z,15.6
2023-05-06T20:59:03.399Z,18.5
2023-05-06T21:01:09.709Z,28.1
2023-05-06T21:03:16.168Z,23.3
2023-05-06T21:05:25.095Z,26.7
2023-05-06T21:09:37.648Z,26
2023-05-06T21:11:43.942Z,32.1
2023-05-06T21:13:50.480Z,29.6
2023-05-06T21:15:56.524Z,26.2
2023-05-06T21:22:18.198Z,22.3
2023-05-06T21:24:24.465Z,23.1
2023-05-06T21:25:29.018Z,35.5
2023-05-06T21:27:35.342Z,27.2
2023-05-06T21:29:41.587Z,29.8
2023-05-06T21:33:56.992Z,40.2
2023-05-06T21:36:03.282Z,25.9
2023-05-06T21:42:22.177Z,27.4
2023-05-06T21:44:28.411Z,40.1
2023-05-06T21:52:56.391Z,34.2
2023-05-06T21:55:02.682Z,30.5
2023-05-06T21:57:08.948Z,38
2023-05-06T21:59:15.230Z,33
2023-05-06T22:05:36.895Z,37.2
2023-05-06T22:07:43.166Z,40
2023-05-06T22:11:55.729Z,32.9
2023-05-06T22:14:02.034Z,34.2
2023-05-06T22:20:23.711Z,31.6
2023-05-06T22:22:29.979Z,33.3
2023-05-06T22:24:55.643Z,33.5
2023-05-06T22:31:17.308Z,40.3
2023-05-06T22:37:36.126Z,66.5
2023-05-06T22:39:42.402Z,37
2023-05-06T22:41:48.681Z,39.9
2023-05-06T22:43:54.963Z,51.4
2023-05-06T22:58:41.738Z,43.8
2023-05-06T23:00:50.870Z,49
2023-05-06T23:02:57.195Z,52.6
2023-05-06T23:05:03.410Z,44.3
2023-05-06T23:07:09.716Z,44.3
2023-05-06T23:09:15.985Z,49
2023-05-06T23:13:28.579Z,55.8
2023-05-06T23:19:50.209Z,43.7
2023-05-06T23:20:54.740Z,38.7
2023-05-06T23:31:29.034Z,47.5
2023-05-06T23:33:35.280Z,47
2023-05-06T23:37:47.816Z,49.6
2023-05-06T23:39:54.145Z,42.7
2023-05-06T23:42:00.426Z,43.9
2023-05-06T23:54:40.925Z,37.7
2023-05-06T23:56:47.205Z,40
2023-05-06T23:58:56.312Z,37.1
